sensor_id;sensor_type;location;lat;lon;timestamp;pressure;altitude;pressure_sealevel;temperature;humidity
59063;BME280;44851;45.648;9.004;2023-06-14T00:01:45;98476.31;;;19.34;74.63
59063;BME280;44851;45.648;9.004;2023-06-14T00:04:13;98462.47;;;19.39;73.72
59063;BME280;44851;45.648;9.004;2023-06-14T00:06:42;98466.13;;;19.38;74.32
59063;BME280;44851;45.648;9.004;2023-06-14T00:09:12;98464.09;;;19.33;74.27
59063;BME280;44851;45.648;9.004;2023-06-14T00:11:42;98470.16;;;19.47;74.19
59063;BME280;44851;45.648;9.004;2023-06-14T00:14:08;98478.69;;;19.49;73.33
59063;BME280;44851;45.648;9.004;2023-06-14T00:16:33;98473.03;;;19.39;73.67
59063;BME280;44851;45.648;9.004;2023-06-14T00:19:01;98479.59;;;19.30;74.89
59063;BME280;44851;45.648;9.004;2023-06-14T00:21:29;98468.19;;;19.36;75.22
59063;BME280;44851;45.648;9.004;2023-06-14T00:23:55;98460.88;;;19.31;75.39
59063;BME280;44851;45.648;9.004;2023-06-14T00:26:20;98471.84;;;19.35;75.39
59063;BME280;44851;45.648;9.004;2023-06-14T00:28:46;98469.38;;;19.40;75.14
59063;BME280;44851;45.648;9.004;2023-06-14T00:31:11;98465.28;;;19.44;75.20
59063;BME280;44851;45.648;9.004;2023-06-14T00:33:37;98469.03;;;19.16;75.20
59063;BME280;44851;45.648;9.004;2023-06-14T00:36:02;98471.56;;;18.91;75.69
59063;BME280;44851;45.648;9.004;2023-06-14T00:38:28;98474.81;;;18.80;76.31
59063;BME280;44851;45.648;9.004;2023-06-14T00:40:53;98474.78;;;18.93;75.98
59063;BME280;44851;45.648;9.004;2023-06-14T00:43:18;98475.81;;;18.86;77.13
59063;BME280;44851;45.648;9.004;2023-06-14T00:45:44;98483.34;;;18.82;76.16
59063;BME280;44851;45.648;9.004;2023-06-14T00:48:10;98482.09;;;18.52;77.87
59063;BME280;44851;45.648;9.004;2023-06-14T00:50:36;98494.69;;;18.56;78.56
59063;BME280;44851;45.648;9.004;2023-06-14T00:53:03;98484.53;;;18.66;79.00
59063;BME280;44851;45.648;9.004;2023-06-14T00:55:29;98486.56;;;18.64;77.67
59063;BME280;44851;45.648;9.004;2023-06-14T00:57:55;98484.56;;;18.60;77.05
59063;BME280;44851;45.648;9.004;2023-06-14T01:00:21;98479.25;;;18.53;77.08
59063;BME280;44851;45.648;9.004;2023-06-14T01:02:47;98482.91;;;18.52;75.55
59063;BME280;44851;45.648;9.004;2023-06-14T01:05:15;98482.50;;;18.68;76.66
59063;BME280;44851;45.648;9.004;2023-06-14T01:10:43;98473.19;;;18.66;75.08
59063;BME280;44851;45.648;9.004;2023-06-14T01:13:32;98477.66;;;18.65;76.21
59063;BME280;44851;45.648;9.004;2023-06-14T01:15:58;98478.84;;;18.69;75.49
59063;BME280;44851;45.648;9.004;2023-06-14T01:18:24;98488.59;;;18.62;75.68
59063;BME280;44851;45.648;9.004;2023-06-14T01:20:51;98488.81;;;18.41;75.90
59063;BME280;44851;45.648;9.004;2023-06-14T01:23:20;98488.19;;;18.46;76.55
59063;BME280;44851;45.648;9.004;2023-06-14T01:25:47;98491.44;;;18.41;74.72
59063;BME280;44851;45.648;9.004;2023-06-14T01:28:18;98490.63;;;18.34;75.23
59063;BME280;44851;45.648;9.004;2023-06-14T01:30:45;98485.75;;;18.31;74.98
59063;BME280;44851;45.648;9.004;2023-06-14T01:33:18;98497.94;;;18.38;75.16
59063;BME280;44851;45.648;9.004;2023-06-14T01:35:47;98503.22;;;18.38;75.12
59063;BME280;44851;45.648;9.004;2023-06-14T01:38:14;98496.94;;;18.33;75.94
59063;BME280;44851;45.648;9.004;2023-06-14T01:40:42;98498.53;;;18.47;75.62
59063;BME280;44851;45.648;9.004;2023-06-14T01:43:09;98499.56;;;18.39;75.62
59063;BME280;44851;45.648;9.004;2023-06-14T01:45:36;98497.31;;;18.30;76.42
59063;BME280;44851;45.648;9.004;2023-06-14T01:48:02;98493.06;;;18.35;76.60
59063;BME280;44851;45.648;9.004;2023-06-14T01:50:29;98486.59;;;18.38;75.61
59063;BME280;44851;45.648;9.004;2023-06-14T01:52:55;98495.91;;;18.40;75.73
59063;BME280;44851;45.648;9.004;2023-06-14T01:55:21;98497.94;;;18.45;75.76
59063;BME280;44851;45.648;9.004;2023-06-14T01:57:47;98490.41;;;18.42;76.33
59063;BME280;44851;45.648;9.004;2023-06-14T02:00:14;98478.88;;;18.56;76.66
59063;BME280;44851;45.648;9.004;2023-06-14T02:02:40;98478.06;;;18.76;76.19
59063;BME280;44851;45.648;9.004;2023-06-14T02:05:06;98481.28;;;18.58;75.01
59063;BME280;44851;45.648;9.004;2023-06-14T02:07:31;98475.81;;;18.53;74.47
59063;BME280;44851;45.648;9.004;2023-06-14T02:09:57;98477.25;;;18.55;75.13
59063;BME280;44851;45.648;9.004;2023-06-14T02:12:22;98472.78;;;18.49;75.41
59063;BME280;44851;45.648;9.004;2023-06-14T02:14:48;98478.06;;;18.49;74.72
59063;BME280;44851;45.648;9.004;2023-06-14T02:17:14;98478.03;;;18.62;75.73
59063;BME280;44851;45.648;9.004;2023-06-14T02:19:40;98473.59;;;18.56;74.61
59063;BME280;44851;45.648;9.004;2023-06-14T02:22:06;98463.63;;;18.58;75.47
59063;BME280;44851;45.648;9.004;2023-06-14T02:24:32;98463.00;;;18.69;75.91
59063;BME280;44851;45.648;9.004;2023-06-14T02:26:57;98454.91;;;18.51;75.37
59063;BME280;44851;45.648;9.004;2023-06-14T02:29:22;98460.59;;;18.35;75.70
59063;BME280;44851;45.648;9.004;2023-06-14T02:31:48;98454.47;;;18.14;75.41
59063;BME280;44851;45.648;9.004;2023-06-14T02:34:14;98452.06;;;18.39;77.16
59063;BME280;44851;45.648;9.004;2023-06-14T02:36:42;98465.06;;;18.28;77.16
59063;BME280;44851;45.648;9.004;2023-06-14T02:39:08;98454.47;;;18.14;75.52
59063;BME280;44851;45.648;9.004;2023-06-14T02:41:36;98453.69;;;18.07;75.77
59063;BME280;44851;45.648;9.004;2023-06-14T02:44:02;98451.63;;;18.16;77.32
59063;BME280;44851;45.648;9.004;2023-06-14T02:46:28;98452.78;;;17.87;77.21
59063;BME280;44851;45.648;9.004;2023-06-14T02:48:53;98444.91;;;18.00;77.76
59063;BME280;44851;45.648;9.004;2023-06-14T02:51:18;98445.47;;;17.89;77.01
59063;BME280;44851;45.648;9.004;2023-06-14T02:53:44;98444.28;;;17.91;77.33
59063;BME280;44851;45.648;9.004;2023-06-14T02:56:10;98447.56;;;18.00;77.43
59063;BME280;44851;45.648;9.004;2023-06-14T02:58:37;98448.56;;;17.99;76.40
59063;BME280;44851;45.648;9.004;2023-06-14T03:01:02;98453.69;;;18.14;77.70
59063;BME280;44851;45.648;9.004;2023-06-14T03:03:28;98455.09;;;18.03;77.86
59063;BME280;44851;45.648;9.004;2023-06-14T03:05:54;98447.53;;;17.87;76.00
59063;BME280;44851;45.648;9.004;2023-06-14T03:08:19;98448.13;;;17.89;78.03
59063;BME280;44851;45.648;9.004;2023-06-14T03:10:49;98444.31;;;17.98;78.14
59063;BME280;44851;45.648;9.004;2023-06-14T03:13:16;98442.03;;;17.82;77.61
59063;BME280;44851;45.648;9.004;2023-06-14T03:15:42;98442.28;;;18.00;76.96
59063;BME280;44851;45.648;9.004;2023-06-14T03:18:10;98436.75;;;17.95;77.36
59063;BME280;44851;45.648;9.004;2023-06-14T03:20:37;98432.94;;;17.91;76.62
59063;BME280;44851;45.648;9.004;2023-06-14T03:23:03;98426.84;;;17.90;75.79
59063;BME280;44851;45.648;9.004;2023-06-14T03:25:30;98424.84;;;17.99;77.56
59063;BME280;44851;45.648;9.004;2023-06-14T03:27:56;98427.69;;;18.04;77.38
59063;BME280;44851;45.648;9.004;2023-06-14T03:30:21;98422.41;;;18.04;76.13
59063;BME280;44851;45.648;9.004;2023-06-14T03:32:47;98421.59;;;18.10;75.96
59063;BME280;44851;45.648;9.004;2023-06-14T03:35:12;98425.25;;;18.03;75.39
59063;BME280;44851;45.648;9.004;2023-06-14T03:37:45;98418.75;;;17.99;75.15
59063;BME280;44851;45.648;9.004;2023-06-14T03:40:12;98411.88;;;18.11;76.16
59063;BME280;44851;45.648;9.004;2023-06-14T03:42:38;98420.00;;;18.23;76.36
59063;BME280;44851;45.648;9.004;2023-06-14T03:45:04;98427.66;;;17.91;74.88
59063;BME280;44851;45.648;9.004;2023-06-14T03:47:30;98428.84;;;17.95;75.84
59063;BME280;44851;45.648;9.004;2023-06-14T03:49:55;98430.31;;;18.04;76.25
59063;BME280;44851;45.648;9.004;2023-06-14T03:52:21;98430.94;;;18.20;76.24
59063;BME280;44851;45.648;9.004;2023-06-14T03:54:48;98421.63;;;18.17;76.03
59063;BME280;44851;45.648;9.004;2023-06-14T03:57:14;98419.78;;;18.11;75.83
59063;BME280;44851;45.648;9.004;2023-06-14T03:59:39;98417.97;;;18.18;75.70
59063;BME280;44851;45.648;9.004;2023-06-14T04:02:06;98413.72;;;18.30;76.16
59063;BME280;44851;45.648;9.004;2023-06-14T04:04:32;98420.63;;;18.38;75.62
59063;BME280;44851;45.648;9.004;2023-06-14T04:06:58;98416.75;;;18.07;75.63
59063;BME280;44851;45.648;9.004;2023-06-14T04:09:25;98417.34;;;18.09;76.38
59063;BME280;44851;45.648;9.004;2023-06-14T04:11:54;98422.03;;;18.21;76.27
59063;BME280;44851;45.648;9.004;2023-06-14T04:14:20;98425.66;;;18.26;76.57
59063;BME280;44851;45.648;9.004;2023-06-14T04:16:46;98423.66;;;18.35;76.69
59063;BME280;44851;45.648;9.004;2023-06-14T04:19:12;98426.47;;;18.27;76.29
59063;BME280;44851;45.648;9.004;2023-06-14T04:21:37;98431.34;;;18.16;76.34
59063;BME280;44851;45.648;9.004;2023-06-14T04:24:03;98442.72;;;18.10;76.92
59063;BME280;44851;45.648;9.004;2023-06-14T04:26:29;98429.94;;;18.21;76.18
59063;BME280;44851;45.648;9.004;2023-06-14T04:28:56;98446.38;;;18.36;76.67
59063;BME280;44851;45.648;9.004;2023-06-14T04:31:23;98440.72;;;18.39;77.02
59063;BME280;44851;45.648;9.004;2023-06-14T04:33:50;98439.69;;;18.40;76.79
59063;BME280;44851;45.648;9.004;2023-06-14T04:36:18;98439.06;;;18.25;75.79
59063;BME280;44851;45.648;9.004;2023-06-14T04:38:44;98448.41;;;18.14;75.74
59063;BME280;44851;45.648;9.004;2023-06-14T04:41:10;98444.56;;;18.23;76.62
59063;BME280;44851;45.648;9.004;2023-06-14T04:43:37;98449.03;;;18.23;76.11
59063;BME280;44851;45.648;9.004;2023-06-14T04:46:06;98448.81;;;18.31;76.47
59063;BME280;44851;45.648;9.004;2023-06-14T04:48:40;98451.25;;;18.39;76.90
59063;BME280;44851;45.648;9.004;2023-06-14T04:51:08;98450.03;;;18.35;76.60
59063;BME280;44851;45.648;9.004;2023-06-14T04:53:34;98443.94;;;18.41;76.81
59063;BME280;44851;45.648;9.004;2023-06-14T04:56:00;98450.44;;;18.45;76.53
59063;BME280;44851;45.648;9.004;2023-06-14T04:58:29;98453.69;;;18.47;77.14
59063;BME280;44851;45.648;9.004;2023-06-14T05:00:55;98460.19;;;18.45;76.49
59063;BME280;44851;45.648;9.004;2023-06-14T05:03:24;98446.78;;;18.59;76.55
59063;BME280;44851;45.648;9.004;2023-06-14T05:05:50;98449.19;;;18.74;77.51
59063;BME280;44851;45.648;9.004;2023-06-14T05:08:18;98452.25;;;18.78;77.85
59063;BME280;44851;45.648;9.004;2023-06-14T05:10:44;98449.25;;;18.81;77.40
59063;BME280;44851;45.648;9.004;2023-06-14T05:13:09;98452.47;;;18.76;76.28
59063;BME280;44851;45.648;9.004;2023-06-14T05:15:35;98457.75;;;18.83;76.95
59063;BME280;44851;45.648;9.004;2023-06-14T05:18:01;98457.31;;;18.99;76.52
59063;BME280;44851;45.648;9.004;2023-06-14T05:20:27;98461.34;;;19.08;77.66
59063;BME280;44851;45.648;9.004;2023-06-14T05:22:54;98454.47;;;19.07;77.00
59063;BME280;44851;45.648;9.004;2023-06-14T05:25:20;98462.53;;;19.12;76.33
59063;BME280;44851;45.648;9.004;2023-06-14T05:27:46;98454.03;;;19.10;77.38
59063;BME280;44851;45.648;9.004;2023-06-14T05:30:12;98460.94;;;19.05;76.08
59063;BME280;44851;45.648;9.004;2023-06-14T05:32:38;98467.25;;;19.10;76.13
59063;BME280;44851;45.648;9.004;2023-06-14T05:35:03;98462.75;;;19.11;76.49
59063;BME280;44851;45.648;9.004;2023-06-14T05:37:29;98462.97;;;19.09;75.45
59063;BME280;44851;45.648;9.004;2023-06-14T05:39:56;98469.84;;;19.24;75.85
59063;BME280;44851;45.648;9.004;2023-06-14T05:42:21;98469.03;;;19.16;75.54
59063;BME280;44851;45.648;9.004;2023-06-14T05:44:47;98473.50;;;19.29;76.64
59063;BME280;44851;45.648;9.004;2023-06-14T05:47:12;98475.91;;;19.31;77.32
59063;BME280;44851;45.648;9.004;2023-06-14T05:49:37;98474.31;;;19.30;76.39
59063;BME280;44851;45.648;9.004;2023-06-14T05:52:03;98473.88;;;19.39;76.66
59063;BME280;44851;45.648;9.004;2023-06-14T05:54:28;98472.44;;;19.37;76.74
59063;BME280;44851;45.648;9.004;2023-06-14T05:56:54;98471.41;;;19.44;76.70
59063;BME280;44851;45.648;9.004;2023-06-14T05:59:19;98475.84;;;19.44;77.34
59063;BME280;44851;45.648;9.004;2023-06-14T06:01:45;98479.91;;;19.53;76.90
59063;BME280;44851;45.648;9.004;2023-06-14T06:04:11;98481.09;;;19.64;77.30
59063;BME280;44851;45.648;9.004;2023-06-14T06:06:37;98481.09;;;19.64;77.24
59063;BME280;44851;45.648;9.004;2023-06-14T06:09:02;98482.34;;;19.61;76.88
59063;BME280;44851;45.648;9.004;2023-06-14T06:11:28;98490.81;;;19.77;75.79
59063;BME280;44851;45.648;9.004;2023-06-14T06:13:53;98488.19;;;19.77;76.75
59063;BME280;44851;45.648;9.004;2023-06-14T06:16:19;98491.75;;;19.89;75.13
59063;BME280;44851;45.648;9.004;2023-06-14T06:18:44;98488.28;;;19.95;75.38
59063;BME280;44851;45.648;9.004;2023-06-14T06:21:10;98492.34;;;19.91;74.97
59063;BME280;44851;45.648;9.004;2023-06-14T06:23:35;98498.63;;;20.03;75.59
59063;BME280;44851;45.648;9.004;2023-06-14T06:26:01;98498.75;;;20.08;75.88
59063;BME280;44851;45.648;9.004;2023-06-14T06:28:26;98499.53;;;20.15;75.73
59063;BME280;44851;45.648;9.004;2023-06-14T06:30:51;98496.25;;;20.20;76.22
59063;BME280;44851;45.648;9.004;2023-06-14T06:33:18;98502.50;;;20.32;75.93
59063;BME280;44851;45.648;9.004;2023-06-14T06:35:44;98504.16;;;20.27;75.56
59063;BME280;44851;45.648;9.004;2023-06-14T06:38:09;98508.00;;;20.31;75.39
59063;BME280;44851;45.648;9.004;2023-06-14T06:40:35;98513.66;;;20.41;75.78
59063;BME280;44851;45.648;9.004;2023-06-14T06:43:02;98522.22;;;20.30;73.89
59063;BME280;44851;45.648;9.004;2023-06-14T06:45:28;98519.44;;;20.24;74.08
59063;BME280;44851;45.648;9.004;2023-06-14T06:47:54;98518.84;;;20.22;72.94
59063;BME280;44851;45.648;9.004;2023-06-14T06:50:20;98523.09;;;20.23;72.25
59063;BME280;44851;45.648;9.004;2023-06-14T06:52:48;98528.03;;;20.20;72.61
59063;BME280;44851;45.648;9.004;2023-06-14T06:55:14;98530.34;;;20.35;72.17
59063;BME280;44851;45.648;9.004;2023-06-14T06:57:39;98529.25;;;20.17;70.08
59063;BME280;44851;45.648;9.004;2023-06-14T07:00:06;98527.97;;;20.27;71.11
59063;BME280;44851;45.648;9.004;2023-06-14T07:02:35;98529.13;;;20.37;72.39
59063;BME280;44851;45.648;9.004;2023-06-14T07:05:01;98522.13;;;20.49;72.87
59063;BME280;44851;45.648;9.004;2023-06-14T07:07:27;98526.69;;;20.42;70.82
59063;BME280;44851;45.648;9.004;2023-06-14T07:09:52;98528.69;;;20.47;71.18
59063;BME280;44851;45.648;9.004;2023-06-14T07:12:18;98529.44;;;20.54;73.10
59063;BME280;44851;45.648;9.004;2023-06-14T07:14:43;98528.31;;;20.37;69.58
59063;BME280;44851;45.648;9.004;2023-06-14T07:17:09;98530.34;;;20.35;71.12
59063;BME280;44851;45.648;9.004;2023-06-14T07:19:34;98534.72;;;20.54;71.46
59063;BME280;44851;45.648;9.004;2023-06-14T07:22:00;98539.28;;;20.47;70.84
59063;BME280;44851;45.648;9.004;2023-06-14T07:24:26;98544.78;;;20.70;69.79
59063;BME280;44851;45.648;9.004;2023-06-14T07:26:53;98539.44;;;20.77;71.65
59063;BME280;44851;45.648;9.004;2023-06-14T07:29:19;98548.66;;;20.93;72.34
59063;BME280;44851;45.648;9.004;2023-06-14T07:31:45;98549.00;;;21.03;71.68
59063;BME280;44851;45.648;9.004;2023-06-14T07:34:10;98549.75;;;21.10;71.76
59063;BME280;44851;45.648;9.004;2023-06-14T07:36:36;98548.47;;;21.19;70.04
59063;BME280;44851;45.648;9.004;2023-06-14T07:39:02;98543.44;;;21.11;66.54
59063;BME280;44851;45.648;9.004;2023-06-14T07:41:28;98546.66;;;21.38;68.11
59063;BME280;44851;45.648;9.004;2023-06-14T07:43:54;98552.91;;;21.62;67.68
59063;BME280;44851;45.648;9.004;2023-06-14T07:46:20;98547.31;;;21.89;66.92
59063;BME280;44851;45.648;9.004;2023-06-14T07:48:46;98551.81;;;21.70;66.20
59063;BME280;44851;45.648;9.004;2023-06-14T07:51:11;98546.41;;;21.95;66.70
59063;BME280;44851;45.648;9.004;2023-06-14T07:53:36;98555.06;;;22.20;61.01
59063;BME280;44851;45.648;9.004;2023-06-14T07:56:02;98552.78;;;22.36;63.37
59063;BME280;44851;45.648;9.004;2023-06-14T07:58:28;98555.94;;;22.44;61.90
59063;BME280;44851;45.648;9.004;2023-06-14T08:00:53;98560.44;;;22.97;64.84
59063;BME280;44851;45.648;9.004;2023-06-14T08:03:19;98558.72;;;23.03;61.32
59063;BME280;44851;45.648;9.004;2023-06-14T08:05:44;98551.53;;;23.39;61.95
59063;BME280;44851;45.648;9.004;2023-06-14T08:08:10;98547.75;;;23.34;56.10
59063;BME280;44851;45.648;9.004;2023-06-14T08:10:35;98546.22;;;23.39;58.38
59063;BME280;44851;45.648;9.004;2023-06-14T08:13:01;98542.66;;;23.45;55.75
59063;BME280;44851;45.648;9.004;2023-06-14T08:15:26;98540.00;;;23.45;55.97
59063;BME280;44851;45.648;9.004;2023-06-14T08:17:52;98544.44;;;23.68;57.52
59063;BME280;44851;45.648;9.004;2023-06-14T08:20:18;98538.63;;;23.82;57.28
59063;BME280;44851;45.648;9.004;2023-06-14T08:22:43;98543.94;;;23.82;60.57
59063;BME280;44851;45.648;9.004;2023-06-14T08:25:11;98546.09;;;23.57;56.81
59063;BME280;44851;45.648;9.004;2023-06-14T08:27:37;98550.97;;;24.00;59.96
59063;BME280;44851;45.648;9.004;2023-06-14T08:30:03;98557.69;;;23.91;57.30
59063;BME280;44851;45.648;9.004;2023-06-14T08:32:28;98561.38;;;23.50;57.25
59063;BME280;44851;45.648;9.004;2023-06-14T08:34:54;98559.81;;;23.77;58.72
59063;BME280;44851;45.648;9.004;2023-06-14T08:37:19;98564.84;;;23.91;56.01
59063;BME280;44851;45.648;9.004;2023-06-14T08:39:46;98555.59;;;23.41;55.27
59063;BME280;44851;45.648;9.004;2023-06-14T08:42:12;98562.53;;;24.06;56.35
59063;BME280;44851;45.648;9.004;2023-06-14T08:44:39;98558.34;;;24.10;56.69
59063;BME280;44851;45.648;9.004;2023-06-14T08:47:05;98560.25;;;24.43;57.17
59063;BME280;44851;45.648;9.004;2023-06-14T08:49:33;98561.00;;;24.55;53.03
59063;BME280;44851;45.648;9.004;2023-06-14T08:52:00;98561.88;;;24.73;53.19
59063;BME280;44851;45.648;9.004;2023-06-14T08:54:29;98564.75;;;24.71;50.97
59063;BME280;44851;45.648;9.004;2023-06-14T08:57:01;98561.81;;;24.56;54.51
59063;BME280;44851;45.648;9.004;2023-06-14T08:59:28;98553.38;;;24.30;54.70
59063;BME280;44851;45.648;9.004;2023-06-14T09:01:54;98559.63;;;24.36;53.59
59063;BME280;44851;45.648;9.004;2023-06-14T09:04:23;98564.13;;;24.07;55.24
59063;BME280;44851;45.648;9.004;2023-06-14T09:06:53;98563.53;;;23.76;56.68
59063;BME280;44851;45.648;9.004;2023-06-14T09:09:20;98562.06;;;24.09;54.61
59063;BME280;44851;45.648;9.004;2023-06-14T09:11:46;98557.75;;;24.36;56.09
59063;BME280;44851;45.648;9.004;2023-06-14T09:14:12;98558.69;;;24.59;52.84
59063;BME280;44851;45.648;9.004;2023-06-14T09:16:37;98556.66;;;24.66;54.59
59063;BME280;44851;45.648;9.004;2023-06-14T09:19:03;98553.56;;;24.40;51.27
59063;BME280;44851;45.648;9.004;2023-06-14T09:21:33;98554.63;;;24.11;51.87
59063;BME280;44851;45.648;9.004;2023-06-14T09:23:59;98562.63;;;23.71;51.92
59063;BME280;44851;45.648;9.004;2023-06-14T09:26:25;98555.47;;;24.00;51.70
59063;BME280;44851;45.648;9.004;2023-06-14T09:28:52;98555.72;;;24.72;52.01
59063;BME280;44851;45.648;9.004;2023-06-14T09:31:20;98550.22;;;24.79;49.09
59063;BME280;44851;45.648;9.004;2023-06-14T09:33:47;98551.28;;;24.95;51.00
59063;BME280;44851;45.648;9.004;2023-06-14T09:36:24;98554.69;;;24.73;48.49
59063;BME280;44851;45.648;9.004;2023-06-14T09:38:58;98553.75;;;25.01;48.74
59063;BME280;44851;45.648;9.004;2023-06-14T09:41:37;98559.19;;;25.06;48.31
59063;BME280;44851;45.648;9.004;2023-06-14T09:44:05;98557.34;;;25.46;49.67
59063;BME280;44851;45.648;9.004;2023-06-14T09:46:31;98555.59;;;25.34;50.84
59063;BME280;44851;45.648;9.004;2023-06-14T09:49:01;98556.53;;;25.67;45.24
59063;BME280;44851;45.648;9.004;2023-06-14T09:51:27;98556.66;;;25.77;47.27
59063;BME280;44851;45.648;9.004;2023-06-14T09:53:59;98556.81;;;25.87;45.59
59063;BME280;44851;45.648;9.004;2023-06-14T09:56:31;98563.13;;;25.81;43.01
59063;BME280;44851;45.648;9.004;2023-06-14T09:58:58;98566.19;;;25.29;45.37
59063;BME280;44851;45.648;9.004;2023-06-14T10:01:25;98557.78;;;25.37;46.54
59063;BME280;44851;45.648;9.004;2023-06-14T10:04:03;98559.44;;;25.22;45.79
59063;BME280;44851;45.648;9.004;2023-06-14T10:06:29;98560.84;;;25.12;49.57
59063;BME280;44851;45.648;9.004;2023-06-14T10:08:59;98559.31;;;25.33;46.34
59063;BME280;44851;45.648;9.004;2023-06-14T10:11:28;98552.38;;;25.54;42.82
59063;BME280;44851;45.648;9.004;2023-06-14T10:13:58;98560.28;;;25.66;44.84
59063;BME280;44851;45.648;9.004;2023-06-14T10:16:37;98556.72;;;25.82;43.36
59063;BME280;44851;45.648;9.004;2023-06-14T10:19:22;98552.59;;;25.91;45.78
59063;BME280;44851;45.648;9.004;2023-06-14T10:22:08;98554.31;;;26.03;44.47
59063;BME280;44851;45.648;9.004;2023-06-14T10:24:40;98546.09;;;26.36;45.18
59063;BME280;44851;45.648;9.004;2023-06-14T10:27:07;98554.06;;;26.53;45.80
59063;BME280;44851;45.648;9.004;2023-06-14T10:32:21;98554.53;;;26.23;42.33
59063;BME280;44851;45.648;9.004;2023-06-14T10:35:00;98549.78;;;26.03;43.66
59063;BME280;44851;45.648;9.004;2023-06-14T10:37:26;98546.19;;;25.70;42.00
59063;BME280;44851;45.648;9.004;2023-06-14T10:39:52;98540.78;;;25.87;43.36
59063;BME280;44851;45.648;9.004;2023-06-14T10:42:18;98541.00;;;26.08;43.27
59063;BME280;44851;45.648;9.004;2023-06-14T10:44:54;98541.66;;;26.20;42.35
59063;BME280;44851;45.648;9.004;2023-06-14T10:47:29;98539.63;;;26.00;38.73
59063;BME280;44851;45.648;9.004;2023-06-14T10:50:04;98542.28;;;26.27;42.03
59063;BME280;44851;45.648;9.004;2023-06-14T10:52:33;98538.72;;;26.43;40.59
59063;BME280;44851;45.648;9.004;2023-06-14T10:55:11;98533.25;;;26.33;40.20
59063;BME280;44851;45.648;9.004;2023-06-14T10:57:59;98528.78;;;26.71;41.76
59063;BME280;44851;45.648;9.004;2023-06-14T11:00:28;98536.91;;;26.86;40.73
59063;BME280;44851;45.648;9.004;2023-06-14T11:05:54;98527.91;;;26.97;40.68
59063;BME280;44851;45.648;9.004;2023-06-14T11:11:10;98524.81;;;27.16;40.22
59063;BME280;44851;45.648;9.004;2023-06-14T11:13:42;98523.75;;;27.12;39.25
59063;BME280;44851;45.648;9.004;2023-06-14T11:16:15;98516.34;;;27.29;38.76
59063;BME280;44851;45.648;9.004;2023-06-14T11:18:42;98522.06;;;27.06;39.15
59063;BME280;44851;45.648;9.004;2023-06-14T11:21:09;98517.09;;;26.82;39.35
59063;BME280;44851;45.648;9.004;2023-06-14T11:23:35;98520.41;;;26.99;39.67
59063;BME280;44851;45.648;9.004;2023-06-14T11:26:01;98526.09;;;27.03;39.34
59063;BME280;44851;45.648;9.004;2023-06-14T11:28:40;98510.00;;;27.45;38.37
59063;BME280;44851;45.648;9.004;2023-06-14T11:31:06;98518.66;;;27.15;38.80
59063;BME280;44851;45.648;9.004;2023-06-14T11:33:32;98510.38;;;27.17;37.66
59063;BME280;44851;45.648;9.004;2023-06-14T11:35:58;98513.03;;;27.17;37.42
59063;BME280;44851;45.648;9.004;2023-06-14T11:38:25;98507.50;;;27.29;38.59
59063;BME280;44851;45.648;9.004;2023-06-14T11:40:51;98504.06;;;27.43;37.82
59063;BME280;44851;45.648;9.004;2023-06-14T11:43:16;98504.19;;;27.64;36.55
59063;BME280;44851;45.648;9.004;2023-06-14T11:45:42;98509.31;;;27.81;38.23
59063;BME280;44851;45.648;9.004;2023-06-14T11:48:07;98506.97;;;27.99;38.34
59063;BME280;44851;45.648;9.004;2023-06-14T11:50:37;98500.56;;;27.38;39.23
59063;BME280;44851;45.648;9.004;2023-06-14T11:53:04;98500.53;;;27.22;40.53
59063;BME280;44851;45.648;9.004;2023-06-14T11:55:38;98499.13;;;27.15;40.43
59063;BME280;44851;45.648;9.004;2023-06-14T11:58:04;98493.34;;;27.33;39.63
59063;BME280;44851;45.648;9.004;2023-06-14T12:00:30;98493.41;;;27.54;38.56
59063;BME280;44851;45.648;9.004;2023-06-14T12:02:56;98492.72;;;27.84;37.87
59063;BME280;44851;45.648;9.004;2023-06-14T12:05:22;98490.59;;;27.96;38.08
59063;BME280;44851;45.648;9.004;2023-06-14T12:07:49;98484.75;;;28.09;39.02
59063;BME280;44851;45.648;9.004;2023-06-14T12:10:16;98485.03;;;28.33;39.97
59063;BME280;44851;45.648;9.004;2023-06-14T12:12:42;98488.81;;;28.42;38.68
59063;BME280;44851;45.648;9.004;2023-06-14T12:15:08;98484.47;;;28.16;37.91
59063;BME280;44851;45.648;9.004;2023-06-14T12:17:36;98478.31;;;28.15;37.98
59063;BME280;44851;45.648;9.004;2023-06-14T12:20:10;98478.44;;;27.58;37.86
59063;BME280;44851;45.648;9.004;2023-06-14T12:25:28;98472.75;;;26.86;38.79
59063;BME280;44851;45.648;9.004;2023-06-14T12:27:56;98474.03;;;26.84;40.46
59063;BME280;44851;45.648;9.004;2023-06-14T12:30:22;98484.31;;;26.60;41.35
59063;BME280;44851;45.648;9.004;2023-06-14T12:32:47;98473.03;;;26.53;42.25
59063;BME280;44851;45.648;9.004;2023-06-14T12:35:15;98468.41;;;26.11;41.88
59063;BME280;44851;45.648;9.004;2023-06-14T12:37:40;98481.13;;;26.31;43.30
59063;BME280;44851;45.648;9.004;2023-06-14T12:40:06;98472.56;;;26.29;40.99
59063;BME280;44851;45.648;9.004;2023-06-14T12:42:33;98469.53;;;26.20;41.29
59063;BME280;44851;45.648;9.004;2023-06-14T12:44:59;98472.66;;;26.76;39.86
59063;BME280;44851;45.648;9.004;2023-06-14T12:47:25;98465.91;;;27.06;40.29
59063;BME280;44851;45.648;9.004;2023-06-14T12:49:50;98471.81;;;27.08;41.36
59063;BME280;44851;45.648;9.004;2023-06-14T12:52:15;98472.31;;;26.62;40.42
59063;BME280;44851;45.648;9.004;2023-06-14T12:54:41;98472.34;;;26.35;40.06
59063;BME280;44851;45.648;9.004;2023-06-14T12:57:06;98472.16;;;26.15;41.83
59063;BME280;44851;45.648;9.004;2023-06-14T12:59:32;98474.06;;;26.19;41.73
59063;BME280;44851;45.648;9.004;2023-06-14T13:02:09;98468.31;;;26.33;43.14
59063;BME280;44851;45.648;9.004;2023-06-14T13:04:36;98476.50;;;26.21;42.41
59063;BME280;44851;45.648;9.004;2023-06-14T13:07:01;98473.28;;;26.88;42.54
59063;BME280;44851;45.648;9.004;2023-06-14T13:09:26;98463.31;;;27.21;39.48
59063;BME280;44851;45.648;9.004;2023-06-14T13:11:52;98454.53;;;27.36;38.20
59063;BME280;44851;45.648;9.004;2023-06-14T13:14:17;98459.25;;;27.71;36.88